createdAt,value
2022-12-10T00:01:26.509Z,77.38
2022-12-10T00:04:28.349Z,76.05
2022-12-10T00:07:30.212Z,75.66
2022-12-10T00:10:32.045Z,74.20
2022-12-10T00:13:34.862Z,70.26
2022-12-10T00:16:36.831Z,76.49
2022-12-10T00:19:38.875Z,75.34
2022-12-10T00:22:40.853Z,76.64
2022-12-10T00:25:42.699Z,76.58
2022-12-10T00:28:45.328Z,74.69
2022-12-10T00:31:47.247Z,76.11
2022-12-10T00:34:49.144Z,74.85
2022-12-10T00:37:51.084Z,75.55
2022-12-10T00:40:53.074Z,74.79
2022-12-10T00:43:55.200Z,74.49
2022-12-10T00:46:56.995Z,73.92
2022-12-10T00:49:59.001Z,73.96
2022-12-10T00:53:00.938Z,69.73
2022-12-10T00:56:04.362Z,75.86
2022-12-10T00:59:06.305Z,75.13
2022-12-10T01:02:08.309Z,79.94
2022-12-10T01:05:10.216Z,73.56
2022-12-10T01:08:12.154Z,80.09
2022-12-10T01:11:15.127Z,82.49
2022-12-10T01:14:18.574Z,81.14
2022-12-10T01:17:22.373Z,76.63
2022-12-10T01:20:24.335Z,77.44
2022-12-10T01:23:26.168Z,76.83
2022-12-10T01:26:29.461Z,73.50
2022-12-10T01:29:31.483Z,77.18
2022-12-10T01:32:33.332Z,73.13
2022-12-10T01:35:37.353Z,76.36
2022-12-10T01:38:39.419Z,75.18
2022-12-10T01:41:57.796Z,71.01
2022-12-10T01:45:01.809Z,73.78
2022-12-10T01:48:07.992Z,71.52
2022-12-10T01:51:10.770Z,70.48
2022-12-10T01:54:14.722Z,69.73
2022-12-10T01:57:26.329Z,70.09
2022-12-10T02:00:28.116Z,70.02
2022-12-10T02:03:48.614Z,70.52
2022-12-10T02:07:07.837Z,67.81
2022-12-10T02:10:10.019Z,70.58
2022-12-10T02:13:24.263Z,71.12
2022-12-10T02:16:37.566Z,73.30
2022-12-10T02:19:47.297Z,73.19
2022-12-10T02:22:56.604Z,73.72
2022-12-10T02:26:01.532Z,72.89
2022-12-10T02:29:25.445Z,71.83
2022-12-10T02:32:29.116Z,73.60
2022-12-10T02:35:32.123Z,73.04
2022-12-10T02:38:34.661Z,70.20
2022-12-10T02:41:37.164Z,70.41
2022-12-10T02:44:39.105Z,70.63
2022-12-10T02:47:41.028Z,71.34
2022-12-10T02:50:42.855Z,73.42
2022-12-10T02:53:45.127Z,71.70
2022-12-10T02:56:50.028Z,78.47
2022-12-10T02:59:57.963Z,81.57
2022-12-10T03:03:15.773Z,81.01
2022-12-10T03:06:19.536Z,83.61
2022-12-10T03:09:23.823Z,80.72
2022-12-10T03:12:43.335Z,77.61
2022-12-10T03:15:45.172Z,80.25
2022-12-10T03:18:48.718Z,80.68
2022-12-10T03:21:50.612Z,81.21
2022-12-10T03:24:52.503Z,79.41
2022-12-10T03:27:55.333Z,80.99
2022-12-10T03:30:57.256Z,76.96
2022-12-10T03:33:59.200Z,77.42
2022-12-10T03:37:01.327Z,77.35
2022-12-10T03:40:03.997Z,74.94
2022-12-10T03:43:05.830Z,77.71
2022-12-10T03:46:07.825Z,81.27
2022-12-10T03:49:11.179Z,76.92
2022-12-10T03:52:13.257Z,76.50
2022-12-10T03:55:15.245Z,78.37
2022-12-10T03:58:20.331Z,79.27
2022-12-10T04:01:22.665Z,77.19
2022-12-10T04:04:24.820Z,72.96
2022-12-10T04:07:26.691Z,75.82
2022-12-10T04:10:28.524Z,77.77
2022-12-10T04:13:50.604Z,79.28
2022-12-10T04:16:52.721Z,75.45
2022-12-10T04:19:55.761Z,73.55
2022-12-10T04:23:16.479Z,70.03
2022-12-10T04:26:38.683Z,69.26
2022-12-10T04:29:40.623Z,72.17
2022-12-10T04:32:42.512Z,75.32
2022-12-10T04:35:44.353Z,78.58
2022-12-10T04:38:46.210Z,81.62
2022-12-10T04:41:48.720Z,79.20
2022-12-10T04:44:50.550Z,77.68
2022-12-10T04:47:52.390Z,77.60
2022-12-10T04:50:54.180Z,80.14
2022-12-10T04:53:56.162Z,80.40
2022-12-10T04:56:58.151Z,80.37
2022-12-10T05:00:00.262Z,77.59
2022-12-10T05:03:02.219Z,78.87
2022-12-10T05:06:15.625Z,78.05
2022-12-10T05:09:17.546Z,74.90
2022-12-10T05:12:19.377Z,74.68
2022-12-10T05:15:21.260Z,76.36
2022-12-10T05:18:23.060Z,75.71
2022-12-10T05:21:46.293Z,77.83
2022-12-10T05:24:48.115Z,82.73
2022-12-10T05:27:49.910Z,82.38
2022-12-10T05:30:52.239Z,80.29
2022-12-10T05:33:55.000Z,81.31
2022-12-10T05:36:56.961Z,81.32
2022-12-10T05:39:58.864Z,79.11
2022-12-10T05:43:00.832Z,81.62
2022-12-10T05:46:03.061Z,81.10
2022-12-10T05:49:05.670Z,81.91
2022-12-10T05:52:07.548Z,79.62
2022-12-10T05:55:09.629Z,78.00
2022-12-10T05:58:11.482Z,77.49
2022-12-10T06:01:14.522Z,79.13
2022-12-10T06:04:16.407Z,81.56
2022-12-10T06:07:18.387Z,80.25
2022-12-10T06:10:20.289Z,77.25
2022-12-10T06:13:22.249Z,77.82
2022-12-10T06:16:24.699Z,74.97
2022-12-10T06:19:26.602Z,78.35
2022-12-10T06:22:28.431Z,79.64
2022-12-10T06:25:30.322Z,77.32
2022-12-10T06:28:32.144Z,79.64
2022-12-10T06:31:34.114Z,75.83
2022-12-10T06:34:41.265Z,78.78
2022-12-10T06:37:44.690Z,77.79
2022-12-10T06:40:46.574Z,77.28
2022-12-10T06:43:48.899Z,78.37
2022-12-10T06:46:50.784Z,78.50
2022-12-10T06:49:52.690Z,78.70
2022-12-10T06:52:55.193Z,75.89
2022-12-10T06:55:58.880Z,75.34
2022-12-10T06:59:00.684Z,78.36
2022-12-10T07:02:03.107Z,79.91
2022-12-10T07:05:05.141Z,79.33
2022-12-10T07:08:07.156Z,81.16
2022-12-10T07:11:10.102Z,82.11
2022-12-10T07:14:15.315Z,81.62
2022-12-10T07:17:17.430Z,79.14
2022-12-10T07:20:19.734Z,79.20
2022-12-10T07:23:21.593Z,78.60
2022-12-10T07:26:23.468Z,76.41
2022-12-10T07:29:27.556Z,79.70
2022-12-10T07:32:29.391Z,80.70
2022-12-10T07:35:31.207Z,76.59
2022-12-10T07:38:33.063Z,73.33
2022-12-10T07:41:35.982Z,77.16
2022-12-10T07:44:37.910Z,76.94
2022-12-10T07:47:40.247Z,79.20
2022-12-10T07:50:42.159Z,77.17
2022-12-10T07:53:44.398Z,77.91
2022-12-10T07:56:46.457Z,78.58
2022-12-10T07:59:48.374Z,73.85
2022-12-10T08:02:50.266Z,78.70
2022-12-10T08:06:11.562Z,75.16
2022-12-10T08:09:13.408Z,74.01
2022-12-10T08:12:15.403Z,74.96
2022-12-10T08:15:17.492Z,76.21
2022-12-10T08:18:19.339Z,70.06
2022-12-10T08:21:22.291Z,70.99
2022-12-10T08:24:24.190Z,68.60
2022-12-10T08:27:26.181Z,68.73
2022-12-10T08:30:28.233Z,70.97
2022-12-10T08:33:30.155Z,72.21
2022-12-10T08:36:32.066Z,72.12
2022-12-10T08:39:34.569Z,72.09
2022-12-10T08:42:36.400Z,73.54
2022-12-10T08:45:38.290Z,66.53
2022-12-10T08:48:40.389Z,68.75
2022-12-10T08:51:42.296Z,68.64
2022-12-10T08:54:44.146Z,68.45
2022-12-10T08:57:46.115Z,70.53
2022-12-10T09:00:48.455Z,70.45
2022-12-10T09:03:51.290Z,67.08
2022-12-10T09:06:53.759Z,71.04
2022-12-10T09:09:55.636Z,70.64
2022-12-10T09:13:02.952Z,68.79
2022-12-10T09:16:05.977Z,67.03
2022-12-10T09:19:07.969Z,63.56
2022-12-10T09:22:09.793Z,68.44
2022-12-10T09:25:11.852Z,65.69
2022-12-10T09:28:13.824Z,69.54
2022-12-10T09:31:20.609Z,70.84
2022-12-10T09:34:22.892Z,72.03
2022-12-10T09:37:24.830Z,69.00
2022-12-10T09:40:35.497Z,68.51
2022-12-10T09:43:50.933Z,71.38
2022-12-10T09:46:53.783Z,71.37
2022-12-10T09:49:58.720Z,71.06
2022-12-10T09:53:00.600Z,67.96
2022-12-10T09:56:03.407Z,68.13
2022-12-10T09:59:07.792Z,69.06
2022-12-10T10:02:26.906Z,73.17
2022-12-10T10:05:29.808Z,71.55
2022-12-10T10:08:39.502Z,71.48
2022-12-10T10:11:41.394Z,71.58
2022-12-10T10:14:44.050Z,71.77
2022-12-10T10:17:46.740Z,69.53
2022-12-10T10:20:48.619Z,70.10
2022-12-10T10:23:51.008Z,69.19
2022-12-10T10:26:53.929Z,73.66
2022-12-10T10:29:58.267Z,72.06
2022-12-10T10:33:00.370Z,68.02
2022-12-10T10:36:05.766Z,69.07
2022-12-10T10:39:10.522Z,67.97
2022-12-10T10:42:12.670Z,70.16
2022-12-10T10:45:33.132Z,66.17
2022-12-10T10:48:35.254Z,67.58
2022-12-10T10:51:37.245Z,68.31
2022-12-10T10:54:40.036Z,71.36
2022-12-10T10:57:43.285Z,71.90
2022-12-10T11:00:53.714Z,67.53
2022-12-10T11:03:56.944Z,69.48
2022-12-10T11:07:01.229Z,67.49
2022-12-10T11:10:04.144Z,67.37
2022-12-10T11:13:07.800Z,66.61
2022-12-10T11:16:16.050Z,70.19
2022-12-10T11:19:21.855Z,69.42
2022-12-10T11:22:24.803Z,70.32
2022-12-10T11:25:34.410Z,69.61
2022-12-10T11:28:48.694Z,71.24
2022-12-10T11:32:14.147Z,73.36
2022-12-10T11:35:19.590Z,70.43
2022-12-10T11:38:21.407Z,70.87
2022-12-10T11:41:29.302Z,68.51
2022-12-10T11:44:31.193Z,67.93
2022-12-10T11:47:36.804Z,69.87
2022-12-10T11:50:48.851Z,71.14
2022-12-10T11:53:56.615Z,74.56
2022-12-10T11:56:58.372Z,73.75
2022-12-10T12:00:05.851Z,72.69
2022-12-10T12:03:11.165Z,72.40
2022-12-10T12:06:33.377Z,72.35
2022-12-10T12:09:41.201Z,73.44
2022-12-10T12:12:43.264Z,75.31
2022-12-10T12:15:46.413Z,73.28
2022-12-10T12:19:00.699Z,72.81
2022-12-10T12:22:05.896Z,74.92
2022-12-10T12:25:08.469Z,76.80
2022-12-10T12:28:30.852Z,76.50
2022-12-10T12:31:37.070Z,76.25
2022-12-10T12:34:42.251Z,76.02
2022-12-10T12:37:48.908Z,79.28
2022-12-10T12:40:54.733Z,75.34
2022-12-10T12:44:05.562Z,77.11
2022-12-10T12:47:26.573Z,76.32
2022-12-10T12:50:40.886Z,78.00
2022-12-10T12:53:42.822Z,76.87
2022-12-10T12:56:47.845Z,76.68
2022-12-10T12:59:55.022Z,75.85
2022-12-10T13:03:00.024Z,74.34
2022-12-10T13:06:22.061Z,76.48
2022-12-10T13:09:27.888Z,75.44
2022-12-10T13:12:30.951Z,76.90
2022-12-10T13:15:36.425Z,77.56
2022-12-10T13:18:39.214Z,76.89
2022-12-10T13:21:57.873Z,80.92
2022-12-10T13:25:12.554Z,79.77
2022-12-10T13:28:22.247Z,78.14
2022-12-10T13:31:33.454Z,75.86
2022-12-10T13:34:36.194Z,79.16
2022-12-10T13:37:50.001Z,81.50
2022-12-10T13:41:19.387Z,75.82
2022-12-10T13:44:36.686Z,75.55
2022-12-10T13:47:38.553Z,80.63
2022-12-10T13:51:02.387Z,79.78
2022-12-10T13:54:23.148Z,78.30
2022-12-10T13:57:43.210Z,79.52
2022-12-10T14:01:07.692Z,79.81
2022-12-10T14:04:38.828Z,79.01
2022-12-10T14:07:41.299Z,78.06
2022-12-10T14:10:43.334Z,78.93
2022-12-10T14:13:46.284Z,80.48
2022-12-10T14:16:48.128Z,78.51
2022-12-10T14:19:50.861Z,79.02
2022-12-10T14:22:53.908Z,79.42
2022-12-10T14:25:56.147Z,75.32
2022-12-10T14:28:59.320Z,77.51
2022-12-10T14:32:01.226Z,78.83
2022-12-10T14:35:04.645Z,80.96
2022-12-10T14:38:06.850Z,83.15
2022-12-10T14:41:08.682Z,77.58
2022-12-10T14:44:12.583Z,79.46
2022-12-10T14:47:18.187Z,76.15
2022-12-10T14:50:20.105Z,76.17
2022-12-10T14:53:28.768Z,79.60
2022-12-10T14:56:35.340Z,75.72
2022-12-10T14:59:41.866Z,76.41
2022-12-10T15:02:45.401Z,80.86
2022-12-10T15:05:54.249Z,80.75
2022-12-10T15:08:57.109Z,76.64
2022-12-10T15:12:00.136Z,77.11
2022-12-10T15:15:22.223Z,76.45
2022-12-10T15:18:35.211Z,78.41
2022-12-10T15:21:46.630Z,79.03
2022-12-10T15:24:48.798Z,77.53
2022-12-10T15:28:13.979Z,79.86
2022-12-10T15:31:27.971Z,80.22
2022-12-10T15:34:30.378Z,78.51
2022-12-10T15:37:36.113Z,78.60
2022-12-10T15:40:38.331Z,79.86
2022-12-10T15:43:40.321Z,77.73
2022-12-10T15:46:52.155Z,80.99
2022-12-10T15:49:55.393Z,79.60
2022-12-10T15:52:57.293Z,81.61
2022-12-10T15:55:59.131Z,80.73
2022-12-10T15:59:00.980Z,81.19
2022-12-10T16:02:04.139Z,82.26
2022-12-10T16:05:12.181Z,77.86
2022-12-10T16:08:18.788Z,77.99
2022-12-10T16:11:20.926Z,79.20
2022-12-10T16:14:22.925Z,80.36
2022-12-10T16:17:24.753Z,81.39
2022-12-10T16:20:27.879Z,81.87
2022-12-10T16:23:29.742Z,79.44
2022-12-10T16:26:31.772Z,80.97
2022-12-10T16:29:33.821Z,77.40
2022-12-10T16:32:35.807Z,80.33
2022-12-10T16:35:38.024Z,80.74
2022-12-10T16:38:40.393Z,79.39
2022-12-10T16:41:42.492Z,78.24
2022-12-10T16:44:44.364Z,79.13
2022-12-10T16:47:46.397Z,82.28
2022-12-10T16:50:48.899Z,80.87
2022-12-10T16:53:50.836Z,80.85
2022-12-10T16:56:52.676Z,79.95
2022-12-10T16:59:54.601Z,78.81
2022-12-10T17:03:03.020Z,81.84
2022-12-10T17:06:07.425Z,80.33
2022-12-10T17:09:09.506Z,76.83
2022-12-10T17:12:11.606Z,78.64
2022-12-10T17:15:17.205Z,79.34
2022-12-10T17:18:19.608Z,81.15
2022-12-10T17:21:22.594Z,79.21
2022-12-10T17:24:24.562Z,80.43
2022-12-10T17:27:26.567Z,78.90
2022-12-10T17:30:28.377Z,78.29
2022-12-10T17:33:30.625Z,82.05
2022-12-10T17:36:32.701Z,83.67
2022-12-10T17:39:34.570Z,84.81
2022-12-10T17:42:36.469Z,83.79
2022-12-10T17:45:38.670Z,85.59
2022-12-10T17:48:41.139Z,84.37
2022-12-10T17:51:43.545Z,80.07
2022-12-10T17:54:45.670Z,81.91
2022-12-10T17:57:47.523Z,79.60
2022-12-10T18:00:49.918Z,79.48
2022-12-10T18:03:51.808Z,83.36
2022-12-10T18:06:53.658Z,83.56
2022-12-10T18:09:55.543Z,79.88
2022-12-10T18:12:57.731Z,83.23
2022-12-10T18:15:59.760Z,86.25
2022-12-10T18:19:02.984Z,84.40
2022-12-10T18:22:04.832Z,83.07
2022-12-10T18:25:07.005Z,80.87
2022-12-10T18:28:25.831Z,80.73
2022-12-10T18:31:29.290Z,83.50
2022-12-10T18:34:31.341Z,83.20
2022-12-10T18:37:33.337Z,81.29
2022-12-10T18:40:35.287Z,85.79
2022-12-10T18:43:37.115Z,78.32
2022-12-10T18:46:39.664Z,81.85
2022-12-10T18:49:41.609Z,79.73
2022-12-10T18:52:43.460Z,80.54
2022-12-10T18:55:45.368Z,80.42
2022-12-10T18:58:47.545Z,80.09
2022-12-10T19:01:49.397Z,84.21
2022-12-10T19:04:51.335Z,83.06
2022-12-10T19:07:53.452Z,81.74
2022-12-10T19:10:55.797Z,79.73
2022-12-10T19:13:57.869Z,82.10
2022-12-10T19:17:01.402Z,84.06
2022-12-10T19:20:03.610Z,81.32
2022-12-10T19:23:05.549Z,84.00
2022-12-10T19:26:14.651Z,82.61
2022-12-10T19:29:18.166Z,80.99
2022-12-10T19:32:19.975Z,83.50
2022-12-10T19:35:23.538Z,82.18
2022-12-10T19:38:25.449Z,81.42
2022-12-10T19:41:27.378Z,82.05
2022-12-10T19:44:29.378Z,81.45
2022-12-10T19:47:31.288Z,79.30
2022-12-10T19:50:36.144Z,79.46
2022-12-10T19:53:39.266Z,83.03
2022-12-10T19:56:41.181Z,84.47
2022-12-10T19:59:43.274Z,80.77
2022-12-10T20:02:45.727Z,82.19
2022-12-10T20:05:47.676Z,82.10
2022-12-10T20:08:49.622Z,84.23
2022-12-10T20:11:51.868Z,86.06
2022-12-10T20:14:53.692Z,83.95
2022-12-10T20:17:55.793Z,82.61
2022-12-10T20:20:57.851Z,80.97
2022-12-10T20:24:03.195Z,81.91
2022-12-10T20:27:05.507Z,85.09
2022-12-10T20:30:07.618Z,81.48
2022-12-10T20:33:44.371Z,82.73
2022-12-10T20:36:31.377Z,85.21
2022-12-10T20:39:33.788Z,85.51
2022-12-10T20:42:35.595Z,85.62
2022-12-10T20:45:37.705Z,82.44
2022-12-10T20:48:39.587Z,79.35
2022-12-10T20:51:41.723Z,83.36
2022-12-10T20:54:43.589Z,82.57
2022-12-10T20:57:45.545Z,83.17
2022-12-10T21:00:47.407Z,82.69
2022-12-10T21:03:49.561Z,86.10
2022-12-10T21:06:51.398Z,85.93
2022-12-10T21:09:53.259Z,83.73
2022-12-10T21:12:55.186Z,85.12
2022-12-10T21:15:58.841Z,82.48
2022-12-10T21:19:00.928Z,85.59
2022-12-10T21:22:02.892Z,87.37
2022-12-10T21:25:05.133Z,84.84
2022-12-10T21:28:07.149Z,84.18
2022-12-10T21:31:24.897Z,85.82
2022-12-10T21:34:26.824Z,83.03
2022-12-10T21:37:28.651Z,84.54
2022-12-10T21:40:30.781Z,84.70
2022-12-10T21:43:32.673Z,83.89
2022-12-10T21:46:34.882Z,84.63
2022-12-10T21:49:36.867Z,85.23
2022-12-10T21:52:39.298Z,86.30
2022-12-10T21:55:43.620Z,86.35
2022-12-10T21:58:45.550Z,83.01
2022-12-10T22:01:47.485Z,84.98
2022-12-10T22:04:50.052Z,84.87
2022-12-10T22:07:51.967Z,85.59
2022-12-10T22:10:53.983Z,84.66
2022-12-10T22:13:56.000Z,83.45
2022-12-10T22:16:57.860Z,82.81
2022-12-10T22:19:59.746Z,84.58
2022-12-10T22:23:01.643Z,82.71
2022-12-10T22:26:07.181Z,82.86
2022-12-10T22:29:09.005Z,84.20
2022-12-10T22:32:10.972Z,83.26
2022-12-10T22:35:13.079Z,85.73
2022-12-10T22:38:15.065Z,84.57
2022-12-10T22:41:17.131Z,84.11
2022-12-10T22:44:21.881Z,85.65
2022-12-10T22:47:23.891Z,85.43
2022-12-10T22:50:25.782Z,85.36
2022-12-10T22:53:27.705Z,83.40
2022-12-10T22:56:30.013Z,84.37
2022-12-10T22:59:32.011Z,83.42
2022-12-10T23:02:33.897Z,83.36
2022-12-10T23:05:36.082Z,84.10
2022-12-10T23:08:37.949Z,86.65
2022-12-10T23:11:59.951Z,83.63
2022-12-10T23:15:02.056Z,84.51
2022-12-10T23:18:04.063Z,81.14
2022-12-10T23:21:16.179Z,81.79
2022-12-10T23:24:18.043Z,83.16
2022-12-10T23:27:20.292Z,84.16
2022-12-10T23:30:22.433Z,83.37
2022-12-10T23:33:24.254Z,83.11
2022-12-10T23:36:26.252Z,84.83
2022-12-10T23:39:28.200Z,84.27
2022-12-10T23:42:30.625Z,81.80
2022-12-10T23:45:32.528Z,83.51
2022-12-10T23:48:34.395Z,83.94
2022-12-10T23:51:36.246Z,83.68
2022-12-10T23:54:38.107Z,83.71
2022-12-10T23:57:40.059Z,82.86
